Allentown, NY

8:14 AM EDT on October 30, 2014 (GMT -0400)
Wellsville Municipal-Tarantine | Change Station
CLOSE
Current Station
Airport
Location: Wellsville,
Elevation: 2123 ft
Nearby Weather Stations

Elev 2123 ft 42.11 °N, 77.98 °W | Updated 18 minutes ago

Overcast
Overcast
39 °F
Feels Like 35 °F
N
6
Wind Variable Wind from NNW

Today
High -- | Low -- °F
--% Chance of Precip.
Yesterday
High -- | Low -- °F
Precip. -- in
7:42 AM 6:08 PM
Waxing Crescent, 43% visible
Pressure 30.06 in
Visibility 10.0 miles
Clouds Few 900 ft
Mostly Cloudy 1600 ft
Overcast 2700 ft
Windchill 35 °F
Dew Point 36 °F
Humidity 89%
Rainfall 0.02 in
Snow Depth Not available.
UV 0 out of 12
Pollen .10 out of 12
Air Quality Not available.
Flu Activity Not available.
METAR KELZ 301156Z AUTO 33005KT 10SM FEW009 BKN016 OVC027 04/02 A3003 RMK AO2 SLP179 60000 70002 T00390022 10050 20039 51008

More Conditions Fewer Conditions

Pressure 30.06 in
Visibility 10.0 miles
Clouds Few 900 ft
Mostly Cloudy 1600 ft
Overcast 2700 ft
Windchill 35 °F
Dew Point 36 °F
Humidity 89%
Rainfall 0.02 in
Snow Depth Not available.
UV 0 out of 12
Pollen .10 out of 12
Air Quality Not available.
Flu Activity Not available.
METAR KELZ 301156Z AUTO 33005KT 10SM FEW009 BKN016 OVC027 04/02 A3003 RMK AO2 SLP179 60000 70002 T00390022 10050 20039 51008

More Conditions Fewer Conditions

10-Day Weather Forecast

Almanac

Astronomy

Oct. 30, 2014 Rise Set
Actual Time
Civil Twilight
Nautical Twilight
Astronomical Twilight
Moon
Length of Visible Light
Length of Day
Tomorrow will be .
, % of the Moon is Illuminated

Today's Extremes

State Highs State Lows

Community

WunderPhotos

Upload Photos

1,766,349 photos uploaded!

WunderBlogs® & News

Nearby

Air Quality

  Air Quality AQ Index Pollutant
Not available.

Snow Depth

Station Depth Elevation

Earthquake Activity

City Distance Mag. Time & Date
Minimum magnitude displayed is 2.5.

Coastal Water Temperatures

Place Temperature

Nearby Weather Stations